createdAt,value
2018-11-10T00:02:17.735Z,11.70
2018-11-10T00:04:47.657Z,11.69
2018-11-10T00:07:17.551Z,11.69
2018-11-10T00:09:47.644Z,9.38
2018-11-10T00:12:17.484Z,11.69
2018-11-10T00:14:47.489Z,11.67
2018-11-10T00:17:17.346Z,11.67
2018-11-10T00:19:47.204Z,11.63
2018-11-10T00:22:17.095Z,11.63
2018-11-10T00:24:47.075Z,11.59
2018-11-10T00:27:16.863Z,11.57
2018-11-10T00:29:46.765Z,11.56
2018-11-10T00:32:16.592Z,11.53
2018-11-10T00:34:46.638Z,11.54
2018-11-10T00:37:16.277Z,11.53
2018-11-10T00:39:46.200Z,11.52
2018-11-10T00:42:16.064Z,11.53
2018-11-10T00:44:46.081Z,11.56
2018-11-10T00:47:15.961Z,11.55
2018-11-10T00:49:45.872Z,11.51
2018-11-10T00:52:15.777Z,11.49
2018-11-10T00:54:45.669Z,11.45
2018-11-10T00:57:15.452Z,11.44
2018-11-10T00:59:45.315Z,11.44
2018-11-10T01:02:15.101Z,11.44
2018-11-10T01:04:45.086Z,11.45
2018-11-10T01:07:14.984Z,11.48
2018-11-10T01:09:44.813Z,11.50
2018-11-10T01:12:14.635Z,11.45
2018-11-10T01:14:44.549Z,11.42
2018-11-10T01:17:14.457Z,11.40
2018-11-10T01:19:44.336Z,11.37
2018-11-10T01:22:14.175Z,11.35
2018-11-10T01:24:44.060Z,11.33
2018-11-10T01:27:13.937Z,11.31
2018-11-10T01:29:43.903Z,11.34
2018-11-10T01:32:13.745Z,11.34
2018-11-10T01:34:43.501Z,11.33
2018-11-10T01:37:13.403Z,11.33
2018-11-10T01:39:43.255Z,11.32
2018-11-10T01:42:13.051Z,7.72
2018-11-10T01:44:42.924Z,11.27
2018-11-10T01:47:12.730Z,11.29
2018-11-10T01:49:42.521Z,11.29
2018-11-10T01:52:12.260Z,11.27
2018-11-10T01:54:42.064Z,11.29
2018-11-10T01:57:11.781Z,11.26
2018-11-10T01:59:41.646Z,11.21
2018-11-10T02:02:11.484Z,11.22
2018-11-10T02:04:41.314Z,11.20
2018-11-10T02:07:11.174Z,11.21
2018-11-10T02:09:40.962Z,11.22
2018-11-10T02:12:10.795Z,11.19
2018-11-10T02:14:40.692Z,11.23
2018-11-10T02:17:10.479Z,11.26
2018-11-10T02:19:40.310Z,11.26
2018-11-10T02:22:10.150Z,11.25
2018-11-10T02:24:40.026Z,11.27
2018-11-10T02:27:14.001Z,11.25
2018-11-10T02:29:43.921Z,11.24
2018-11-10T02:32:13.785Z,11.23
2018-11-10T02:34:43.736Z,11.25
2018-11-10T02:37:13.476Z,11.22
2018-11-10T02:39:43.421Z,11.22
2018-11-10T02:42:13.264Z,11.20
2018-11-10T02:44:43.172Z,11.23
2018-11-10T02:47:13.014Z,11.25
2018-11-10T02:49:42.836Z,11.27
2018-11-10T02:52:12.590Z,11.22
2018-11-10T02:54:42.425Z,11.17
2018-11-10T02:57:12.317Z,11.15
2018-11-10T02:59:42.153Z,11.16
2018-11-10T03:02:11.959Z,11.16
2018-11-10T03:04:41.755Z,11.18
2018-11-10T03:07:11.619Z,11.17
2018-11-10T03:09:41.497Z,10.87
2018-11-10T03:12:11.295Z,11.22
2018-11-10T03:14:41.145Z,11.20
2018-11-10T03:17:10.989Z,11.18
2018-11-10T03:19:40.948Z,11.16
2018-11-10T03:22:10.801Z,11.20
2018-11-10T03:24:40.641Z,11.17
2018-11-10T03:27:10.383Z,11.15
2018-11-10T03:29:40.235Z,11.12
2018-11-10T03:32:10.088Z,11.13
2018-11-10T03:34:40.059Z,11.12
2018-11-10T03:37:09.900Z,11.15
2018-11-10T03:39:39.747Z,11.13
2018-11-10T03:42:09.581Z,11.08
2018-11-10T03:44:39.452Z,11.09
2018-11-10T03:47:09.311Z,11.07
2018-11-10T03:49:39.147Z,11.08
2018-11-10T03:52:08.989Z,11.07
2018-11-10T03:54:38.820Z,11.10
2018-11-10T03:57:08.618Z,10.49
2018-11-10T03:59:38.534Z,11.06
2018-11-10T04:02:08.327Z,11.05
2018-11-10T04:04:38.235Z,11.07
2018-11-10T04:07:08.093Z,11.07
2018-11-10T04:09:37.963Z,11.06
2018-11-10T04:12:07.968Z,11.07
2018-11-10T04:14:37.885Z,11.11
2018-11-10T04:17:07.779Z,11.11
2018-11-10T04:19:37.578Z,11.10
2018-11-10T04:22:07.568Z,11.09
2018-11-10T04:24:37.502Z,11.11
2018-11-10T04:27:07.401Z,11.13
2018-11-10T04:29:37.325Z,11.13
2018-11-10T04:32:07.177Z,10.56
2018-11-10T04:34:36.984Z,11.17
2018-11-10T04:37:07.042Z,11.09
2018-11-10T04:39:36.795Z,11.10
2018-11-10T04:42:06.693Z,11.12
2018-11-10T04:44:36.524Z,11.06
2018-11-10T04:47:06.575Z,11.04
2018-11-10T04:49:36.409Z,11.04
2018-11-10T04:52:06.993Z,11.02
2018-11-10T04:54:36.807Z,11.01
2018-11-10T04:57:06.898Z,11.00
2018-11-10T04:59:36.864Z,11.03
2018-11-10T05:02:06.741Z,11.02
2018-11-10T05:04:36.563Z,11.04
2018-11-10T05:07:06.485Z,11.06
2018-11-10T05:09:36.241Z,11.07
2018-11-10T05:12:06.223Z,11.10
2018-11-10T05:14:36.091Z,11.11
2018-11-10T05:17:06.268Z,11.13
2018-11-10T05:19:36.081Z,11.16
2018-11-10T05:22:05.935Z,11.18
2018-11-10T05:24:35.858Z,11.17
2018-11-10T05:27:06.022Z,11.17
2018-11-10T05:29:35.751Z,11.17
2018-11-10T05:32:05.711Z,11.14
2018-11-10T05:34:35.559Z,11.14
2018-11-10T05:37:05.555Z,11.10
2018-11-10T05:39:35.448Z,11.13
2018-11-10T05:42:05.391Z,11.10
2018-11-10T05:44:35.261Z,11.10
2018-11-10T05:47:05.216Z,11.08
2018-11-10T05:49:35.065Z,11.06
2018-11-10T05:52:05.294Z,11.07
2018-11-10T05:54:35.154Z,11.05
2018-11-10T05:57:05.099Z,11.06
2018-11-10T05:59:34.883Z,11.05
2018-11-10T06:02:04.777Z,11.06
2018-11-10T06:04:34.644Z,11.06
2018-11-10T06:07:04.459Z,11.05
2018-11-10T06:09:34.330Z,11.05
2018-11-10T06:12:04.103Z,11.03
2018-11-10T06:14:34.002Z,11.04
2018-11-10T06:17:03.941Z,10.98
2018-11-10T06:19:33.749Z,11.02
2018-11-10T06:22:03.543Z,11.03
2018-11-10T06:24:33.351Z,11.05
2018-11-10T06:27:03.191Z,11.07
2018-11-10T06:29:33.165Z,11.08
2018-11-10T06:32:03.059Z,11.07
2018-11-10T06:34:32.929Z,11.08
2018-11-10T06:37:02.842Z,11.15
2018-11-10T06:39:32.708Z,11.18
2018-11-10T06:42:03.683Z,11.22
2018-11-10T06:44:33.535Z,11.21
2018-11-10T06:47:03.487Z,11.23
2018-11-10T06:49:33.324Z,11.22
2018-11-10T06:52:03.199Z,11.19
2018-11-10T06:54:33.087Z,11.15
2018-11-10T06:57:02.968Z,11.13
2018-11-10T06:59:32.827Z,11.13
2018-11-10T07:02:02.705Z,11.13
2018-11-10T07:04:32.739Z,11.13
2018-11-10T07:07:02.786Z,11.12
2018-11-10T07:09:32.757Z,11.15
2018-11-10T07:12:02.573Z,11.21
2018-11-10T07:14:32.467Z,11.23
2018-11-10T07:17:02.397Z,11.25
2018-11-10T07:19:32.310Z,11.26
2018-11-10T07:22:02.122Z,11.25
2018-11-10T07:24:32.053Z,11.28
2018-11-10T07:27:01.909Z,11.30
2018-11-10T07:29:31.784Z,11.35
2018-11-10T07:32:01.917Z,11.40
2018-11-10T07:34:32.093Z,11.44
2018-11-10T07:37:01.952Z,11.53
2018-11-10T07:39:31.768Z,11.59
2018-11-10T07:42:01.611Z,11.63
2018-11-10T07:44:31.598Z,11.66
2018-11-10T07:47:01.472Z,11.66
2018-11-10T07:49:31.526Z,11.67
2018-11-10T07:52:01.179Z,11.04
2018-11-10T07:54:31.129Z,11.76
2018-11-10T07:57:01.069Z,11.76
2018-11-10T07:59:31.007Z,11.77
2018-11-10T08:02:00.830Z,11.82
2018-11-10T08:04:30.699Z,11.88
2018-11-10T08:07:00.491Z,11.87
2018-11-10T08:09:30.410Z,11.90
2018-11-10T08:12:00.254Z,11.94
2018-11-10T08:14:30.061Z,11.99
2018-11-10T08:16:59.868Z,12.01
2018-11-10T08:19:29.637Z,12.08
2018-11-10T08:21:59.383Z,12.14
2018-11-10T08:24:29.219Z,12.18
2018-11-10T08:26:59.090Z,12.23
2018-11-10T08:29:28.885Z,12.27
2018-11-10T08:31:58.811Z,12.34
2018-11-10T08:34:28.672Z,12.41
2018-11-10T08:36:58.537Z,12.49
2018-11-10T08:39:28.504Z,12.49
2018-11-10T08:41:58.397Z,12.52
2018-11-10T08:44:28.289Z,12.63
2018-11-10T08:46:58.107Z,12.64
2018-11-10T08:49:28.027Z,12.69
2018-11-10T08:51:57.975Z,12.68
2018-11-10T08:54:27.804Z,12.77
2018-11-10T08:56:58.619Z,12.77
2018-11-10T08:59:28.543Z,12.77
2018-11-10T09:01:58.455Z,12.76
2018-11-10T09:04:28.389Z,12.77
2018-11-10T09:06:58.617Z,12.75
2018-11-10T09:09:28.565Z,12.76
2018-11-10T09:11:58.413Z,12.75
2018-11-10T09:14:28.352Z,12.71
2018-11-10T09:16:58.180Z,12.72
2018-11-10T09:19:28.063Z,12.72
2018-11-10T09:21:57.924Z,12.78
2018-11-10T09:24:27.947Z,12.88
2018-11-10T09:26:57.984Z,12.05
2018-11-10T09:29:27.842Z,12.79
2018-11-10T09:31:57.793Z,12.73
2018-11-10T09:34:27.742Z,12.71
2018-11-10T09:36:57.674Z,12.68
2018-11-10T09:39:27.698Z,12.73
2018-11-10T09:41:57.691Z,12.80
2018-11-10T09:44:27.556Z,12.82
2018-11-10T09:46:57.461Z,12.85
2018-11-10T09:49:27.336Z,12.88
2018-11-10T09:51:57.214Z,12.89
2018-11-10T09:54:27.093Z,12.87
2018-11-10T09:56:57.150Z,12.85
2018-11-10T09:59:27.197Z,12.80
2018-11-10T10:01:57.304Z,12.75
2018-11-10T10:04:26.970Z,12.73
2018-11-10T10:07:14.078Z,12.72
2018-11-10T10:09:43.945Z,12.78
2018-11-10T10:12:13.841Z,12.83
2018-11-10T10:14:43.746Z,12.88
2018-11-10T10:17:13.667Z,12.82
2018-11-10T10:19:43.646Z,12.91
2018-11-10T10:22:13.529Z,12.92
2018-11-10T10:24:43.400Z,12.97
2018-11-10T10:27:14.018Z,13.00
2018-11-10T10:29:47.363Z,12.91
2018-11-10T10:32:19.108Z,12.99
2018-11-10T10:34:53.511Z,12.63
2018-11-10T10:37:24.312Z,12.90
2018-11-10T10:39:54.591Z,13.03
2018-11-10T10:42:24.496Z,13.05
2018-11-10T10:44:54.476Z,13.08
2018-11-10T10:47:24.730Z,13.05
2018-11-10T10:49:54.632Z,13.15
2018-11-10T10:52:24.541Z,13.21
2018-11-10T10:54:54.442Z,13.13
2018-11-10T10:57:24.273Z,13.13
2018-11-10T10:59:54.137Z,13.13
2018-11-10T11:02:29.153Z,13.11
2018-11-10T11:05:04.021Z,13.12
2018-11-10T11:07:33.893Z,13.14
2018-11-10T11:10:03.760Z,13.23
2018-11-10T11:12:33.620Z,13.33
2018-11-10T11:15:03.633Z,13.35
2018-11-10T11:17:33.510Z,13.36
2018-11-10T11:20:03.501Z,13.39
2018-11-10T11:22:33.462Z,13.49
2018-11-10T11:25:03.537Z,13.61
2018-11-10T11:27:33.521Z,13.60
2018-11-10T11:30:03.809Z,13.42
2018-11-10T11:32:34.270Z,13.44
2018-11-10T11:35:04.219Z,13.37
2018-11-10T11:37:34.113Z,13.46
2018-11-10T11:40:04.024Z,13.58
2018-11-10T11:42:33.890Z,13.61
2018-11-10T11:45:03.803Z,13.69
2018-11-10T11:47:33.695Z,13.73
2018-11-10T11:50:03.781Z,13.63
2018-11-10T11:52:33.800Z,13.75
2018-11-10T11:55:03.672Z,13.73
2018-11-10T11:57:33.576Z,13.67
2018-11-10T12:00:03.441Z,13.67
2018-11-10T12:02:33.361Z,13.75
2018-11-10T12:05:03.343Z,13.85
2018-11-10T12:07:33.154Z,13.78
2018-11-10T12:10:03.189Z,13.65
2018-11-10T12:12:33.121Z,13.62
2018-11-10T12:15:02.984Z,13.72
2018-11-10T12:17:32.932Z,13.76
2018-11-10T12:20:02.853Z,13.82
2018-11-10T12:22:32.783Z,13.80
2018-11-10T12:25:02.711Z,13.63
2018-11-10T12:27:32.574Z,13.87
2018-11-10T12:30:02.452Z,13.88
2018-11-10T12:32:32.382Z,13.93
2018-11-10T12:35:02.324Z,13.97
2018-11-10T12:37:32.368Z,14.03
2018-11-10T12:40:02.380Z,14.03
2018-11-10T12:42:32.756Z,14.08
2018-11-10T12:45:03.388Z,14.10
2018-11-10T12:47:33.361Z,14.12
2018-11-10T12:50:03.396Z,14.02
2018-11-10T12:52:33.338Z,13.87
2018-11-10T12:55:03.404Z,13.69
2018-11-10T12:57:33.285Z,13.60
2018-11-10T13:00:03.243Z,13.50
2018-11-10T13:02:33.200Z,13.40
2018-11-10T13:05:03.076Z,13.38
2018-11-10T13:07:34.699Z,13.32
2018-11-10T13:10:07.236Z,13.25
2018-11-10T13:12:38.979Z,13.20
2018-11-10T13:15:10.892Z,13.18
2018-11-10T13:17:40.999Z,13.15
2018-11-10T13:20:14.737Z,13.10
2018-11-10T13:22:46.677Z,13.09
2018-11-10T13:25:20.964Z,13.07
2018-11-10T13:27:50.893Z,13.11
2018-11-10T13:30:20.873Z,13.28
2018-11-10T13:32:50.939Z,13.12
2018-11-10T13:35:20.919Z,13.00
2018-11-10T13:37:50.768Z,12.90
2018-11-10T13:40:20.724Z,12.96
2018-11-10T13:42:50.630Z,12.88
2018-11-10T13:45:20.516Z,12.76
2018-11-10T13:47:50.377Z,12.89
2018-11-10T13:50:20.324Z,12.76
2018-11-10T13:52:50.642Z,12.84
2018-11-10T13:55:20.077Z,12.76
2018-11-10T13:57:49.946Z,12.68
2018-11-10T14:00:20.031Z,12.74
2018-11-10T14:02:49.868Z,12.82
2018-11-10T14:05:21.125Z,12.75
2018-11-10T14:07:51.048Z,12.66
2018-11-10T14:10:20.873Z,12.70
2018-11-10T14:12:52.664Z,12.67
2018-11-10T14:15:23.582Z,12.61
2018-11-10T14:17:54.028Z,12.64
2018-11-10T14:20:24.715Z,12.58
2018-11-10T14:22:55.524Z,12.62
2018-11-10T14:25:25.748Z,12.51
2018-11-10T14:27:55.568Z,12.41
2018-11-10T14:30:26.383Z,12.34
2018-11-10T14:32:56.727Z,12.31
2018-11-10T14:35:26.523Z,12.27
2018-11-10T14:37:56.275Z,12.28
2018-11-10T14:40:26.083Z,12.32
2018-11-10T14:42:56.001Z,12.38
2018-11-10T14:45:25.852Z,12.32
2018-11-10T14:47:55.730Z,12.23
2018-11-10T14:50:25.459Z,12.19
2018-11-10T14:52:55.423Z,12.11
2018-11-10T14:55:25.144Z,12.12
2018-11-10T14:57:54.991Z,12.13
2018-11-10T15:00:27.963Z,12.21
2018-11-10T15:02:57.834Z,12.25
2018-11-10T15:05:27.812Z,12.24
2018-11-10T15:07:57.687Z,12.21
2018-11-10T15:10:27.535Z,12.17
2018-11-10T15:12:57.378Z,12.12
2018-11-10T15:15:27.240Z,12.16
2018-11-10T15:17:57.206Z,12.11
2018-11-10T15:20:27.205Z,12.10
2018-11-10T15:22:57.044Z,12.04
2018-11-10T15:25:27.095Z,12.00
2018-11-10T15:27:56.872Z,11.95
2018-11-10T15:30:26.719Z,11.93
2018-11-10T15:32:56.640Z,11.85
2018-11-10T15:35:26.515Z,11.77
2018-11-10T15:37:56.353Z,11.74
2018-11-10T15:40:26.222Z,11.67
2018-11-10T15:42:56.138Z,11.52
2018-11-10T15:45:42.621Z,11.37
2018-11-10T15:48:13.555Z,11.22
2018-11-10T15:50:43.496Z,11.10
2018-11-10T15:53:13.712Z,10.93
2018-11-10T15:55:43.701Z,10.83
2018-11-10T15:58:13.618Z,10.77
2018-11-10T16:00:43.537Z,10.71
2018-11-10T16:03:13.454Z,10.67
2018-11-10T16:05:43.480Z,10.61
2018-11-10T16:08:14.007Z,10.54
2018-11-10T16:10:44.137Z,10.48
2018-11-10T16:13:14.132Z,10.41
2018-11-10T16:15:44.162Z,10.31
2018-11-10T16:18:14.106Z,9.15
2018-11-10T16:20:44.178Z,10.19
2018-11-10T16:23:14.046Z,10.18
2018-11-10T16:25:43.895Z,10.31
2018-11-10T16:28:13.812Z,10.20
2018-11-10T16:30:43.748Z,10.11
2018-11-10T16:33:13.592Z,10.04
2018-11-10T16:35:43.433Z,9.99
2018-11-10T16:38:24.573Z,9.93
2018-11-10T16:40:56.174Z,9.93
2018-11-10T16:43:30.047Z,9.94
2018-11-10T16:46:08.159Z,9.91
2018-11-10T16:48:51.107Z,9.90
2018-11-10T16:51:43.021Z,9.85
2018-11-10T16:54:26.368Z,9.84
2018-11-10T16:57:09.734Z,9.82
2018-11-10T16:59:49.439Z,9.79
2018-11-10T17:02:29.405Z,9.78
2018-11-10T17:05:09.438Z,9.66
2018-11-10T17:07:47.962Z,9.58
2018-11-10T17:10:30.941Z,9.57
2018-11-10T17:13:09.381Z,9.55
2018-11-10T17:15:55.346Z,9.54
2018-11-10T17:18:31.512Z,9.55
2018-11-10T17:21:05.884Z,9.57
2018-11-10T17:23:36.784Z,9.64
2018-11-10T17:26:07.320Z,9.61
2018-11-10T17:28:38.148Z,9.55
2018-11-10T17:31:08.464Z,9.51
2018-11-10T17:33:38.755Z,9.49
2018-11-10T17:36:08.772Z,9.60
2018-11-10T17:38:38.457Z,9.56
2018-11-10T17:41:08.250Z,9.49
2018-11-10T17:43:38.335Z,9.42
2018-11-10T17:46:08.639Z,9.38
2018-11-10T17:48:41.324Z,9.35
2018-11-10T17:51:11.492Z,9.31
2018-11-10T17:53:41.550Z,9.45
2018-11-10T17:56:11.342Z,9.52
2018-11-10T17:58:41.425Z,9.46
2018-11-10T18:01:11.303Z,9.36
2018-11-10T18:03:41.287Z,9.27
2018-11-10T18:06:11.592Z,9.28
2018-11-10T18:08:41.725Z,9.15
2018-11-10T18:11:11.549Z,9.03
2018-11-10T18:13:41.567Z,8.96
2018-11-10T18:16:11.493Z,8.93
2018-11-10T18:18:41.440Z,8.90
2018-11-10T18:21:11.188Z,8.89
2018-11-10T18:23:41.023Z,8.85
2018-11-10T18:26:10.943Z,8.79
2018-11-10T18:28:40.774Z,8.74
2018-11-10T18:31:10.646Z,7.57
2018-11-10T18:33:40.699Z,8.76
2018-11-10T18:36:10.578Z,8.70
2018-11-10T18:38:40.452Z,8.69
2018-11-10T18:41:10.203Z,8.69
2018-11-10T18:43:40.181Z,8.69
2018-11-10T18:46:10.003Z,8.64
2018-11-10T18:48:40.251Z,8.61
2018-11-10T18:51:10.712Z,8.58
2018-11-10T18:53:40.622Z,8.53
2018-11-10T18:56:10.583Z,8.50
2018-11-10T18:58:40.484Z,8.47
2018-11-10T19:01:10.365Z,8.43
2018-11-10T19:03:40.368Z,8.41
2018-11-10T19:06:10.357Z,8.29
2018-11-10T19:08:40.251Z,7.35
2018-11-10T19:11:10.143Z,8.58
2018-11-10T19:13:40.034Z,8.46
2018-11-10T19:16:09.973Z,8.38
2018-11-10T19:18:39.989Z,8.23
2018-11-10T19:21:33.313Z,8.17
2018-11-10T19:24:16.798Z,8.18
2018-11-10T19:27:10.202Z,8.14
2018-11-10T19:29:51.163Z,8.17
2018-11-10T19:32:33.355Z,8.20
2018-11-10T19:35:16.691Z,8.23
2018-11-10T19:37:49.441Z,8.34
2018-11-10T19:40:20.166Z,8.29
2018-11-10T19:42:52.342Z,8.26
2018-11-10T19:45:24.059Z,8.22
2018-11-10T19:47:56.052Z,8.14
2018-11-10T19:50:26.054Z,8.09
2018-11-10T19:52:55.874Z,8.05
2018-11-10T19:55:25.706Z,8.01
2018-11-10T19:57:56.723Z,7.96
2018-11-10T20:00:28.057Z,7.88
2018-11-10T20:02:57.775Z,7.86
2018-11-10T20:05:29.796Z,7.85
2018-11-10T20:08:00.559Z,7.80
2018-11-10T20:10:32.944Z,7.71
2018-11-10T20:13:07.359Z,7.75
2018-11-10T20:15:37.623Z,7.76
2018-11-10T20:18:10.366Z,7.76
2018-11-10T20:20:42.370Z,7.75
2018-11-10T20:23:16.245Z,7.88
2018-11-10T20:25:46.464Z,7.80
2018-11-10T20:28:17.562Z,7.76
2018-11-10T20:30:51.352Z,7.72
2018-11-10T20:33:24.358Z,7.67
2018-11-10T20:35:55.779Z,7.63
2018-11-10T20:38:28.691Z,7.60
2018-11-10T20:41:00.559Z,7.57
2018-11-10T20:43:31.211Z,7.58
2018-11-10T20:46:02.128Z,7.55
2018-11-10T20:48:32.881Z,7.59
2018-11-10T20:51:04.187Z,7.51
2018-11-10T20:53:35.283Z,6.56
2018-11-10T20:56:06.580Z,7.44
2018-11-10T20:58:38.098Z,7.48
2018-11-10T21:01:08.608Z,7.44
2018-11-10T21:03:39.321Z,7.47
2018-11-10T21:06:10.405Z,7.45
2018-11-10T21:08:41.108Z,7.42
2018-11-10T21:11:16.739Z,7.34
2018-11-10T21:13:47.899Z,7.32
2018-11-10T21:16:18.498Z,7.30
2018-11-10T21:18:48.789Z,7.23
2018-11-10T21:21:19.673Z,7.19
2018-11-10T21:23:51.530Z,7.21
2018-11-10T21:26:22.222Z,7.20
2018-11-10T21:28:53.128Z,7.22
2018-11-10T21:31:24.551Z,7.24
2018-11-10T21:33:55.996Z,7.23
2018-11-10T21:36:26.073Z,7.24
2018-11-10T21:38:56.478Z,7.26
2018-11-10T21:41:27.275Z,7.29
2018-11-10T21:43:57.944Z,7.29
2018-11-10T21:46:28.284Z,7.29
2018-11-10T21:48:58.627Z,7.24
2018-11-10T21:51:29.342Z,7.19
2018-11-10T21:53:59.657Z,7.18
2018-11-10T21:56:29.719Z,7.15
2018-11-10T21:59:00.084Z,7.11
2018-11-10T22:01:31.443Z,7.05
2018-11-10T22:04:02.403Z,7.02
2018-11-10T22:06:33.114Z,7.01
2018-11-10T22:09:03.377Z,6.98
2018-11-10T22:11:34.907Z,6.96
2018-11-10T22:14:05.636Z,6.88
2018-11-10T22:16:36.366Z,6.88
2018-11-10T22:19:06.570Z,6.90
2018-11-10T22:21:37.351Z,6.91
2018-11-10T22:24:08.267Z,6.89
2018-11-10T22:26:39.366Z,6.83
2018-11-10T22:29:10.115Z,6.82
2018-11-10T22:31:41.004Z,6.84
2018-11-10T22:34:12.403Z,6.86
2018-11-10T22:36:43.321Z,6.84
2018-11-10T22:39:13.533Z,6.85
2018-11-10T22:41:43.930Z,6.82
2018-11-10T22:44:15.146Z,6.78
2018-11-10T22:46:46.042Z,6.75
2018-11-10T22:49:17.638Z,6.74
2018-11-10T22:51:48.908Z,6.71
2018-11-10T22:54:18.906Z,6.72
2018-11-10T22:56:49.629Z,6.74
2018-11-10T22:59:19.913Z,6.72
2018-11-10T23:01:49.931Z,6.67
2018-11-10T23:04:20.334Z,6.68
2018-11-10T23:06:51.956Z,6.72
2018-11-10T23:09:23.455Z,4.20
2018-11-10T23:11:54.659Z,6.59
2018-11-10T23:14:25.362Z,6.63
2018-11-10T23:16:57.404Z,6.58
2018-11-10T23:19:28.353Z,6.54
2018-11-10T23:21:59.248Z,6.51
2018-11-10T23:24:30.027Z,6.35
2018-11-10T23:27:00.203Z,6.38
2018-11-10T23:29:30.268Z,6.51
2018-11-10T23:32:07.943Z,6.52
2018-11-10T23:34:42.427Z,6.43
2018-11-10T23:37:12.956Z,6.47
2018-11-10T23:39:43.047Z,6.49
2018-11-10T23:42:14.755Z,6.50
2018-11-10T23:44:46.315Z,6.47
2018-11-10T23:47:17.595Z,6.45
2018-11-10T23:49:48.169Z,6.44
2018-11-10T23:52:18.572Z,6.46
2018-11-10T23:54:48.836Z,6.49
2018-11-10T23:57:19.555Z,6.53
2018-11-10T23:59:50.137Z,6.57
